Terminal Aerodrome Forecast
Issued by NWS

Home | Current Version | Previous Version | Text Only | Print | Product List | Glossary On
Versions: 1 2 3 4 5 6 7 8 9 10 11 12 13 14 15 16 17 18 19
818
FTUS43 KDLH 171137
TAFHIB
TAF
KHIB 171137Z 1712/1812 25006KT P6SM SCT025
     FM171800 28011G17KT P6SM BKN040
     FM180000 28006KT P6SM FEW250
     FM181100 15004KT P6SM SCT025 BKN080=

USA.gov is the U.S. government's official web portal to all federal, state and local government web resources and services.